createdAt,value
2023-05-01T15:10:48.165Z,26.74
2023-05-01T15:13:14.761Z,27.56
2023-05-01T15:15:41.583Z,26.97
2023-05-01T15:18:11.445Z,27.21
2023-05-01T15:20:39.230Z,27.59
2023-05-01T15:23:05.785Z,27.98
2023-05-01T15:25:32.358Z,28.24
2023-05-01T15:27:58.957Z,28.51
2023-05-01T15:30:25.701Z,27.68
2023-05-01T15:32:55.378Z,28.49
2023-05-01T15:35:23.634Z,28.80
2023-05-01T15:37:50.726Z,29.51
2023-05-01T15:40:17.465Z,28.95
2023-05-01T15:42:45.528Z,29.99
2023-05-01T15:45:12.122Z,31.03
2023-05-01T15:47:38.781Z,31.21
2023-05-01T15:50:09.552Z,30.84
2023-05-01T15:52:36.147Z,31.74
2023-05-01T15:55:02.795Z,32.02
2023-05-01T15:57:32.544Z,31.49
2023-05-01T15:59:59.248Z,31.98
2023-05-01T16:02:29.262Z,32.12
2023-05-01T16:04:55.938Z,32.29
2023-05-01T16:07:22.531Z,32.03
2023-05-01T16:09:49.327Z,32.52
2023-05-01T16:12:16.069Z,32.64
2023-05-01T16:14:42.689Z,33.05
2023-05-01T16:17:09.638Z,32.86
2023-05-01T16:19:39.118Z,32.13
2023-05-01T16:22:07.358Z,32.15
2023-05-01T16:24:36.150Z,32.41
2023-05-01T16:27:03.132Z,32.79
2023-05-01T16:29:33.410Z,32.02
2023-05-01T16:32:00.216Z,32.17
2023-05-01T16:34:27.599Z,32.39
2023-05-01T16:36:56.147Z,32.46
2023-05-01T16:39:23.222Z,32.31
2023-05-01T16:41:52.373Z,32.38
2023-05-01T16:44:21.265Z,32.56
2023-05-01T16:46:58.605Z,32.46
2023-05-01T16:49:29.894Z,32.08
2023-05-01T16:51:58.290Z,31.99
2023-05-01T16:54:35.293Z,32.86
2023-05-01T16:57:03.299Z,33.67
2023-05-01T16:59:30.634Z,34.34
2023-05-01T17:01:57.574Z,34.45
2023-05-01T17:04:25.224Z,34.11
2023-05-01T17:06:52.280Z,34.14
2023-05-01T17:09:19.163Z,34.26
2023-05-01T17:11:56.755Z,34.33
2023-05-01T17:14:23.913Z,34.70
2023-05-01T17:16:50.998Z,34.87
2023-05-01T17:19:17.737Z,34.93
2023-05-01T17:21:44.355Z,35.07
2023-05-01T17:24:12.964Z,35.27
2023-05-01T17:26:39.655Z,35.64
2023-05-01T17:29:06.217Z,35.33
2023-05-01T17:31:32.935Z,35.73
2023-05-01T17:33:59.813Z,35.95
2023-05-01T17:36:27.170Z,36.41
2023-05-01T17:38:54.649Z,36.44
2023-05-01T17:41:24.298Z,36.59
2023-05-01T17:43:50.919Z,36.76
2023-05-01T17:46:18.429Z,36.95
2023-05-01T17:48:45.136Z,37.74
2023-05-01T17:51:14.116Z,37.95
2023-05-01T17:53:41.690Z,38.36
2023-05-01T17:56:09.118Z,38.88
2023-05-01T17:58:35.833Z,38.80
2023-05-01T18:01:04.648Z,39.00
2023-05-01T18:03:32.954Z,38.79
2023-05-01T18:06:01.664Z,40.64
2023-05-01T18:08:28.402Z,40.99
2023-05-01T18:10:55.305Z,41.84
2023-05-01T18:13:27.854Z,42.28
2023-05-01T18:15:57.769Z,42.79
2023-05-01T18:18:24.714Z,43.12
2023-05-01T18:20:51.833Z,43.30
2023-05-01T18:23:18.885Z,43.68
2023-05-01T18:25:46.482Z,44.35
2023-05-01T18:28:13.557Z,44.89
2023-05-01T18:30:40.150Z,44.57
2023-05-01T18:33:06.913Z,45.26
2023-05-01T18:35:33.668Z,46.49
2023-05-01T18:38:00.298Z,46.67
2023-05-01T18:40:27.437Z,46.60
2023-05-01T18:42:54.166Z,46.93
2023-05-01T18:45:20.903Z,47.07
2023-05-01T18:47:48.148Z,46.61
2023-05-01T18:50:16.981Z,46.25
2023-05-01T18:52:43.921Z,47.14
2023-05-01T18:55:11.637Z,47.77
2023-05-01T18:57:38.277Z,47.87
2023-05-01T19:00:06.549Z,47.59
2023-05-01T19:02:33.403Z,49.47
2023-05-01T19:05:00.159Z,49.66
2023-05-01T19:07:26.898Z,51.00
2023-05-01T19:09:53.664Z,51.51
2023-05-01T19:12:20.292Z,50.99
2023-05-01T19:14:47.096Z,50.87
2023-05-01T19:17:13.826Z,51.25
2023-05-01T19:19:40.448Z,51.62
2023-05-01T19:22:07.461Z,51.74
2023-05-01T19:24:34.201Z,52.16
2023-05-01T19:27:03.585Z,51.89
2023-05-01T19:29:31.947Z,51.57
2023-05-01T19:32:00.425Z,51.84
2023-05-01T19:34:27.884Z,51.58
2023-05-01T19:36:57.102Z,51.65
2023-05-01T19:39:24.224Z,51.52
2023-05-01T19:41:51.005Z,51.17
2023-05-01T19:44:18.028Z,51.58
2023-05-01T19:46:45.047Z,51.83
2023-05-01T19:49:12.071Z,52.17
2023-05-01T19:51:38.739Z,52.98
2023-05-01T19:54:05.356Z,53.16
2023-05-01T19:56:31.971Z,53.14
2023-05-01T19:59:01.333Z,53.28
2023-05-01T20:01:31.345Z,53.17
2023-05-01T20:03:58.291Z,53.14
2023-05-01T20:06:24.978Z,52.78
2023-05-01T20:08:52.046Z,53.22
2023-05-01T20:11:18.794Z,53.27
2023-05-01T20:13:46.048Z,53.11
2023-05-01T20:16:13.037Z,53.48
2023-05-01T20:18:39.695Z,53.57
2023-05-01T20:21:07.723Z,54.36
2023-05-01T20:23:34.888Z,54.65
2023-05-01T20:26:01.844Z,54.63
2023-05-01T20:28:28.626Z,54.48
2023-05-01T20:30:56.306Z,54.26
2023-05-01T20:33:23.173Z,54.11
2023-05-01T20:35:51.469Z,54.04
2023-05-01T20:38:18.334Z,53.89
2023-05-01T20:40:45.366Z,53.94
2023-05-01T20:43:13.058Z,54.03
2023-05-01T20:45:39.697Z,53.95
2023-05-01T20:48:06.735Z,53.84
2023-05-01T20:50:34.908Z,53.90
2023-05-01T20:53:01.796Z,53.91
2023-05-01T20:55:30.051Z,53.96
2023-05-01T20:57:56.795Z,53.95
2023-05-01T21:00:23.575Z,54.02
2023-05-01T21:02:51.750Z,54.02
2023-05-01T21:05:18.655Z,54.18
2023-05-01T21:07:45.365Z,54.09
2023-05-01T21:10:14.317Z,54.13
2023-05-01T21:12:41.073Z,54.16
2023-05-01T21:15:09.347Z,54.30
2023-05-01T21:17:37.105Z,54.44
2023-05-01T21:20:08.551Z,54.50
2023-05-01T21:22:35.826Z,54.55
2023-05-01T21:25:02.650Z,54.72
2023-05-01T21:27:29.392Z,54.89
2023-05-01T21:29:59.263Z,55.00
2023-05-01T21:32:32.619Z,55.16
2023-05-01T21:35:00.522Z,55.40
2023-05-01T21:37:30.087Z,55.50
2023-05-01T21:40:01.361Z,55.65
2023-05-01T21:42:35.764Z,55.82
2023-05-01T21:45:07.647Z,55.98
2023-05-01T21:47:38.638Z,55.87
2023-05-01T21:50:07.188Z,56.37
2023-05-01T21:52:34.966Z,56.67
2023-05-01T21:55:03.790Z,56.92
2023-05-01T21:57:31.769Z,57.06
2023-05-01T22:00:01.642Z,57.34
2023-05-01T22:02:35.224Z,57.22
2023-05-01T22:05:01.981Z,57.80
2023-05-01T22:07:28.535Z,57.40
2023-05-01T22:09:59.074Z,57.25
2023-05-01T22:12:26.099Z,57.27
2023-05-01T22:14:53.130Z,57.87
2023-05-01T22:17:24.359Z,58.10
2023-05-01T22:19:51.789Z,58.08
2023-05-01T22:22:19.452Z,59.37
2023-05-01T22:24:46.505Z,59.70
2023-05-01T22:27:13.229Z,59.80
2023-05-01T22:29:39.807Z,59.93
2023-05-01T22:32:06.434Z,59.88
2023-05-01T22:34:33.391Z,59.88
2023-05-01T22:36:59.979Z,59.76
2023-05-01T22:39:26.516Z,59.67
2023-05-01T22:41:53.148Z,59.69
2023-05-01T22:44:22.334Z,59.53
2023-05-01T22:46:49.122Z,59.43
2023-05-01T22:49:15.704Z,59.27
2023-05-01T22:51:42.246Z,59.12
2023-05-01T22:54:08.932Z,59.04
2023-05-01T22:56:35.637Z,58.95
2023-05-01T22:59:02.284Z,58.79
2023-05-01T23:01:29.421Z,58.74
2023-05-01T23:03:56.645Z,58.72
2023-05-01T23:06:23.536Z,58.69
2023-05-01T23:08:56.179Z,58.78
2023-05-01T23:11:22.855Z,58.87
2023-05-01T23:13:50.083Z,58.87
2023-05-01T23:16:17.651Z,59.15
2023-05-01T23:18:45.594Z,59.28
2023-05-01T23:21:18.187Z,59.45
2023-05-01T23:23:46.586Z,59.67
2023-05-01T23:26:27.004Z,60.01
2023-05-01T23:28:53.893Z,59.97
2023-05-01T23:31:27.828Z,60.26
2023-05-01T23:33:55.457Z,60.42
2023-05-01T23:36:22.154Z,60.43
2023-05-01T23:38:48.853Z,60.51
2023-05-01T23:41:16.567Z,60.46
2023-05-01T23:43:46.586Z,60.27
2023-05-01T23:46:13.926Z,60.17
2023-05-01T23:48:41.547Z,60.19
2023-05-01T23:51:08.383Z,60.12
2023-05-01T23:53:35.008Z,60.09
2023-05-01T23:56:02.198Z,60.07
2023-05-01T23:58:28.806Z,60.15
